createdAt,value
2022-12-15T00:02:19.981Z,18.00
2022-12-15T00:05:06.160Z,17.57
2022-12-15T00:07:52.261Z,20.80
2022-12-15T00:10:38.298Z,16.10
2022-12-15T00:13:31.865Z,16.87
2022-12-15T00:16:18.057Z,18.40
2022-12-15T00:19:04.231Z,18.93
2022-12-15T00:21:50.532Z,13.00
2022-12-15T00:24:36.288Z,14.70
2022-12-15T00:27:21.789Z,14.77
2022-12-15T00:30:07.962Z,11.10
2022-12-15T00:32:53.580Z,17.03
2022-12-15T00:35:39.296Z,18.90
2022-12-15T00:38:26.955Z,19.03
2022-12-15T00:40:59.071Z,24.40
2022-12-15T00:43:31.738Z,21.67
2022-12-15T00:46:18.297Z,22.17
2022-12-15T00:48:46.167Z,19.40
2022-12-15T00:51:14.213Z,18.80
2022-12-15T00:54:00.934Z,16.43
2022-12-15T00:56:47.225Z,20.37
2022-12-15T00:59:33.358Z,17.40
2022-12-15T01:02:19.601Z,16.40
2022-12-15T01:05:06.090Z,17.07
2022-12-15T01:07:52.230Z,12.90
2022-12-15T01:10:38.291Z,15.30
2022-12-15T01:13:24.634Z,11.90
2022-12-15T01:16:10.827Z,10.60
2022-12-15T01:18:56.663Z,10.90
2022-12-15T01:21:25.510Z,12.40
2022-12-15T01:23:53.138Z,16.10
2022-12-15T01:26:20.367Z,17.07
2022-12-15T01:28:47.600Z,19.00
2022-12-15T01:31:14.906Z,18.93
2022-12-15T01:33:44.930Z,14.80
2022-12-15T01:36:12.144Z,13.93
2022-12-15T01:38:39.282Z,15.77
2022-12-15T01:41:10.003Z,15.20
2022-12-15T01:43:39.526Z,14.47
2022-12-15T01:46:11.612Z,20.10
2022-12-15T01:48:48.143Z,18.97
2022-12-15T01:51:32.280Z,14.13
2022-12-15T01:54:05.292Z,16.93
2022-12-15T01:56:37.911Z,17.97
2022-12-15T01:59:09.292Z,18.20
2022-12-15T02:01:36.870Z,17.90
2022-12-15T02:04:04.291Z,18.37
2022-12-15T02:06:31.403Z,22.83
2022-12-15T02:09:00.859Z,14.30
2022-12-15T02:11:37.027Z,18.20
2022-12-15T02:14:07.580Z,12.57
2022-12-15T02:17:02.102Z,11.53
2022-12-15T02:19:51.078Z,14.77
2022-12-15T02:22:37.094Z,13.10
2022-12-15T02:25:11.574Z,14.80
2022-12-15T02:27:49.317Z,15.80
2022-12-15T02:30:42.193Z,11.40
2022-12-15T02:33:18.389Z,14.27
2022-12-15T02:36:27.152Z,13.60
2022-12-15T02:38:54.319Z,10.00
2022-12-15T02:41:39.635Z,11.43
2022-12-15T02:44:15.872Z,14.87
2022-12-15T02:47:01.091Z,10.63
2022-12-15T02:49:54.920Z,9.77
2022-12-15T02:53:03.987Z,10.60
2022-12-15T02:55:37.544Z,12.07
2022-12-15T02:58:28.052Z,14.77
2022-12-15T03:01:02.693Z,13.07
2022-12-15T03:03:32.868Z,12.53
2022-12-15T03:06:02.332Z,14.93
2022-12-15T03:08:29.906Z,16.50
2022-12-15T03:10:58.877Z,13.33
2022-12-15T03:13:26.071Z,14.93
2022-12-15T03:15:54.547Z,17.87
2022-12-15T03:18:21.988Z,19.17
2022-12-15T03:20:49.235Z,14.47
2022-12-15T03:23:16.485Z,16.77
2022-12-15T03:25:49.778Z,14.43
2022-12-15T03:28:17.576Z,13.60
2022-12-15T03:30:44.875Z,15.77
2022-12-15T03:33:12.177Z,11.90
2022-12-15T03:35:39.343Z,15.27
2022-12-15T03:38:06.565Z,15.30
2022-12-15T03:40:33.677Z,12.70
2022-12-15T03:43:00.790Z,16.53
2022-12-15T03:45:28.983Z,10.77
2022-12-15T03:47:58.096Z,12.60
2022-12-15T03:50:27.539Z,11.87
2022-12-15T03:52:58.686Z,13.27
2022-12-15T03:55:28.400Z,13.77
2022-12-15T03:57:55.950Z,13.53
2022-12-15T04:00:24.813Z,12.73
2022-12-15T04:02:52.709Z,15.80
2022-12-15T04:05:28.524Z,11.33
2022-12-15T04:07:57.599Z,11.67
2022-12-15T04:10:33.544Z,15.50
2022-12-15T04:13:06.112Z,12.50
2022-12-15T04:15:34.851Z,13.40
2022-12-15T04:18:04.305Z,16.63
2022-12-15T04:20:31.541Z,11.83
2022-12-15T04:22:58.971Z,12.13
2022-12-15T04:25:45.472Z,14.63
2022-12-15T04:28:32.099Z,13.63
2022-12-15T04:31:40.584Z,10.93
2022-12-15T04:34:31.714Z,12.70
2022-12-15T04:37:18.186Z,14.47
2022-12-15T04:40:08.902Z,11.83
2022-12-15T04:42:56.514Z,13.23
2022-12-15T04:45:44.195Z,10.83
2022-12-15T04:48:30.865Z,11.77
2022-12-15T04:51:16.712Z,15.83
2022-12-15T04:54:05.645Z,12.73
2022-12-15T04:56:51.586Z,13.67
2022-12-15T04:59:37.229Z,13.20
2022-12-15T05:02:22.919Z,13.23
2022-12-15T05:05:08.716Z,10.67
2022-12-15T05:07:54.102Z,10.50
2022-12-15T05:10:39.855Z,13.23
2022-12-15T05:13:26.668Z,11.63
2022-12-15T05:16:12.329Z,11.03
2022-12-15T05:18:58.232Z,12.50
2022-12-15T05:21:43.860Z,12.70
2022-12-15T05:24:29.506Z,18.00
2022-12-15T05:27:15.159Z,15.60
2022-12-15T05:30:00.922Z,12.73
2022-12-15T05:32:28.031Z,14.13
2022-12-15T05:34:55.174Z,15.23
2022-12-15T05:37:22.283Z,15.50
2022-12-15T05:39:49.478Z,15.20
2022-12-15T05:42:16.618Z,18.63
2022-12-15T05:44:43.999Z,25.73
2022-12-15T05:47:11.824Z,14.97
2022-12-15T05:49:39.057Z,15.70
2022-12-15T05:52:06.824Z,23.43
2022-12-15T05:54:33.966Z,13.63
2022-12-15T05:57:01.061Z,18.30
2022-12-15T05:59:28.199Z,11.60
2022-12-15T06:01:55.331Z,10.60
2022-12-15T06:04:22.564Z,10.10
2022-12-15T06:06:49.740Z,11.40
2022-12-15T06:09:16.926Z,11.10
2022-12-15T06:11:44.773Z,24.43
2022-12-15T06:14:11.930Z,13.57
2022-12-15T06:16:50.178Z,14.50
2022-12-15T06:19:20.035Z,11.63
2022-12-15T06:21:47.185Z,15.37
2022-12-15T06:24:14.420Z,16.33
2022-12-15T06:26:42.044Z,13.97
2022-12-15T06:29:11.351Z,15.60
2022-12-15T06:31:39.198Z,13.20
2022-12-15T06:34:10.517Z,15.60
2022-12-15T06:36:37.713Z,16.23
2022-12-15T06:39:07.163Z,13.57
2022-12-15T06:41:34.553Z,11.03
2022-12-15T06:44:01.787Z,12.67
2022-12-15T06:46:30.544Z,17.90
2022-12-15T06:48:58.811Z,16.33
2022-12-15T06:51:27.235Z,13.40
2022-12-15T06:53:55.327Z,13.43
2022-12-15T06:56:38.994Z,12.73
2022-12-15T06:59:07.417Z,14.00
2022-12-15T07:01:35.368Z,14.03
2022-12-15T07:04:05.429Z,14.77
2022-12-15T07:06:37.459Z,12.43
2022-12-15T07:09:07.954Z,12.37
2022-12-15T07:11:35.529Z,16.07
2022-12-15T07:14:03.241Z,20.43
2022-12-15T07:16:31.205Z,16.13
2022-12-15T07:18:58.452Z,16.27
2022-12-15T07:21:25.647Z,14.10
2022-12-15T07:23:55.173Z,11.53
2022-12-15T07:26:23.638Z,17.10
2022-12-15T07:28:51.301Z,15.57
2022-12-15T07:31:18.555Z,15.57
2022-12-15T07:33:47.496Z,16.13
2022-12-15T07:36:14.607Z,18.30
2022-12-15T07:38:41.813Z,15.47
2022-12-15T07:41:10.110Z,16.00
2022-12-15T07:43:38.184Z,19.97
2022-12-15T07:46:06.492Z,15.77
2022-12-15T07:48:33.945Z,19.10
2022-12-15T07:51:11.099Z,17.17
2022-12-15T07:53:42.586Z,18.77
2022-12-15T07:56:10.506Z,16.10
2022-12-15T07:58:38.577Z,17.67
2022-12-15T08:01:08.290Z,26.50
2022-12-15T08:03:37.103Z,19.57
2022-12-15T08:06:10.369Z,19.17
2022-12-15T08:08:38.451Z,21.37
2022-12-15T08:11:10.399Z,17.10
2022-12-15T08:14:01.987Z,19.17
2022-12-15T08:16:26.328Z,18.37
2022-12-15T08:18:53.879Z,22.17
2022-12-15T08:21:21.164Z,23.70
2022-12-15T08:23:48.327Z,18.70
2022-12-15T08:26:18.006Z,19.83
2022-12-15T08:28:45.847Z,17.27
2022-12-15T08:31:18.818Z,25.20
2022-12-15T08:33:46.968Z,20.70
2022-12-15T08:36:16.425Z,22.30
2022-12-15T08:38:45.600Z,20.60
2022-12-15T08:41:16.021Z,23.90
2022-12-15T08:43:48.656Z,15.80
2022-12-15T08:46:28.113Z,16.60
2022-12-15T08:48:55.727Z,14.30
2022-12-15T08:51:24.347Z,15.93
2022-12-15T08:53:51.530Z,14.07
2022-12-15T08:56:20.575Z,11.80
2022-12-15T08:58:49.389Z,13.37
2022-12-15T09:01:23.967Z,11.97
2022-12-15T09:03:53.849Z,14.07
2022-12-15T09:06:32.981Z,13.10
2022-12-15T09:09:02.689Z,13.43
2022-12-15T09:11:30.644Z,17.63
2022-12-15T09:13:58.160Z,12.10
2022-12-15T09:16:25.702Z,13.20
2022-12-15T09:18:55.228Z,11.83
2022-12-15T09:21:26.137Z,10.47
2022-12-15T09:23:57.708Z,17.07
2022-12-15T09:26:24.880Z,13.40
2022-12-15T09:28:57.750Z,14.70
2022-12-15T09:31:28.648Z,17.83
2022-12-15T09:33:59.585Z,18.57
2022-12-15T09:36:28.404Z,19.40
2022-12-15T09:38:55.538Z,15.63
2022-12-15T09:41:28.364Z,18.30
2022-12-15T09:44:20.316Z,22.03
2022-12-15T09:46:55.230Z,19.10
2022-12-15T09:49:43.653Z,20.77
2022-12-15T09:52:14.346Z,15.30
2022-12-15T09:54:43.195Z,13.67
2022-12-15T09:57:31.440Z,13.17
2022-12-15T10:00:12.296Z,12.07
2022-12-15T10:02:39.386Z,11.60
2022-12-15T10:05:17.100Z,13.60
2022-12-15T10:07:46.523Z,9.30
2022-12-15T10:10:43.220Z,11.93
2022-12-15T10:13:23.500Z,8.93
2022-12-15T10:16:26.776Z,10.73
2022-12-15T10:19:37.382Z,10.60
2022-12-15T10:22:04.673Z,12.10
2022-12-15T10:27:32.271Z,8.87
2022-12-15T10:30:10.820Z,7.30
2022-12-15T10:33:19.411Z,9.43
2022-12-15T10:35:47.961Z,6.07
2022-12-15T10:38:42.498Z,5.83
2022-12-15T10:41:16.143Z,7.40
2022-12-15T10:46:36.056Z,5.60
2022-12-15T10:49:06.367Z,7.80
2022-12-15T10:51:37.298Z,7.33
2022-12-15T10:54:10.591Z,7.70
2022-12-15T10:56:55.833Z,7.57
2022-12-15T10:59:22.886Z,8.73
2022-12-15T11:01:51.090Z,7.77
2022-12-15T11:04:26.909Z,7.20
2022-12-15T11:06:59.759Z,9.70
2022-12-15T11:09:29.722Z,12.10
2022-12-15T11:12:15.730Z,12.83
2022-12-15T11:14:45.602Z,17.90
2022-12-15T11:17:41.864Z,13.73
2022-12-15T11:20:18.640Z,22.03
2022-12-15T11:23:07.359Z,13.47
2022-12-15T11:26:00.449Z,13.60
2022-12-15T11:28:47.088Z,18.93
2022-12-15T11:31:23.330Z,16.27
2022-12-15T11:33:54.973Z,10.90
2022-12-15T11:36:31.047Z,12.63
2022-12-15T11:39:29.803Z,14.57
2022-12-15T11:42:29.429Z,13.90
2022-12-15T11:45:05.128Z,16.77
2022-12-15T11:47:45.034Z,21.43
2022-12-15T11:50:30.378Z,13.47
2022-12-15T11:53:11.442Z,12.13
2022-12-15T11:55:56.884Z,12.57
2022-12-15T11:58:37.935Z,12.73
2022-12-15T12:01:17.624Z,12.63
2022-12-15T12:03:48.238Z,13.13
2022-12-15T12:06:25.120Z,13.50
2022-12-15T12:09:07.305Z,13.00
2022-12-15T12:11:55.476Z,12.63
2022-12-15T12:14:31.308Z,12.80
2022-12-15T12:17:11.240Z,14.47
2022-12-15T12:19:50.840Z,15.40
2022-12-15T12:22:24.034Z,14.97
2022-12-15T12:25:03.931Z,17.90
2022-12-15T12:27:50.325Z,15.80
2022-12-15T12:30:23.203Z,15.57
2022-12-15T12:33:32.073Z,15.63
2022-12-15T12:36:25.544Z,16.37
2022-12-15T12:38:56.251Z,18.83
2022-12-15T12:41:36.800Z,16.00
2022-12-15T12:44:20.263Z,17.43
2022-12-15T12:46:52.174Z,18.63
2022-12-15T12:49:26.787Z,13.83
2022-12-15T12:51:56.861Z,15.97
2022-12-15T12:54:36.010Z,17.67
2022-12-15T12:57:35.207Z,22.30
2022-12-15T13:00:02.440Z,14.70
2022-12-15T13:02:35.352Z,17.33
2022-12-15T13:05:24.945Z,15.07
2022-12-15T13:08:06.859Z,15.90
2022-12-15T13:10:40.326Z,15.53
2022-12-15T13:13:31.305Z,20.27
2022-12-15T13:16:07.936Z,20.10
2022-12-15T13:19:08.504Z,19.60
2022-12-15T13:21:41.831Z,16.13
2022-12-15T13:24:41.638Z,17.93
2022-12-15T13:27:08.745Z,17.87
2022-12-15T13:29:57.072Z,19.00
2022-12-15T13:32:47.442Z,21.03
2022-12-15T13:35:14.705Z,19.33
2022-12-15T13:37:50.632Z,17.23
2022-12-15T13:40:37.747Z,20.77
2022-12-15T13:43:04.860Z,22.83
2022-12-15T13:45:38.162Z,22.30
2022-12-15T13:48:24.394Z,22.90
2022-12-15T13:51:18.281Z,18.87
2022-12-15T13:53:51.581Z,21.10
2022-12-15T13:56:27.862Z,20.03
2022-12-15T13:59:04.154Z,20.37
2022-12-15T14:01:33.532Z,25.23
2022-12-15T14:04:15.575Z,22.90
2022-12-15T14:07:00.673Z,22.07
2022-12-15T14:09:35.776Z,24.67
2022-12-15T14:12:05.504Z,25.60
2022-12-15T14:14:37.061Z,21.70
2022-12-15T14:17:08.766Z,22.47
2022-12-15T14:19:43.858Z,24.77
2022-12-15T14:22:28.168Z,22.37
2022-12-15T14:25:13.407Z,29.60
2022-12-15T14:27:40.750Z,21.17
2022-12-15T14:30:26.896Z,23.93
2022-12-15T14:33:24.064Z,19.80
2022-12-15T14:35:58.367Z,23.67
2022-12-15T14:38:49.929Z,23.33
2022-12-15T14:41:37.298Z,22.17
2022-12-15T14:44:36.353Z,23.70
2022-12-15T14:47:16.328Z,22.00
2022-12-15T14:49:45.494Z,28.20
2022-12-15T14:52:40.035Z,24.23
2022-12-15T14:55:38.845Z,22.77
2022-12-15T14:58:32.975Z,23.60
2022-12-15T15:01:03.114Z,24.60
2022-12-15T15:03:04.066Z,6.77
2022-12-15T15:03:39.313Z,24.17
2022-12-15T15:06:18.159Z,27.87
2022-12-15T15:08:50.910Z,23.20
2022-12-15T15:11:29.516Z,24.27
2022-12-15T15:14:00.522Z,22.90
2022-12-15T15:16:28.059Z,26.27
2022-12-15T15:18:56.462Z,22.20
2022-12-15T15:21:34.108Z,25.37
2022-12-15T15:24:02.250Z,24.57
2022-12-15T15:26:31.000Z,21.70
2022-12-15T15:28:58.795Z,25.73
2022-12-15T15:31:27.988Z,24.20
2022-12-15T15:33:57.959Z,35.50
2022-12-15T15:36:31.557Z,23.10
2022-12-15T15:38:59.351Z,26.00
2022-12-15T15:41:31.790Z,31.27
2022-12-15T15:44:00.606Z,23.63
2022-12-15T15:46:35.969Z,32.20
2022-12-15T15:49:08.146Z,28.93
2022-12-15T15:51:36.122Z,27.30
2022-12-15T15:54:06.357Z,26.20
2022-12-15T15:56:33.632Z,28.37
2022-12-15T15:59:13.857Z,31.80
2022-12-15T16:01:41.406Z,37.93
2022-12-15T16:04:09.107Z,31.40
2022-12-15T16:06:37.477Z,28.77
2022-12-15T16:09:09.658Z,39.73
2022-12-15T16:11:37.962Z,30.10
2022-12-15T16:14:12.019Z,29.20
2022-12-15T16:16:39.257Z,36.57
2022-12-15T16:19:06.917Z,29.93
2022-12-15T16:21:35.659Z,28.40
2022-12-15T16:24:14.488Z,27.10
2022-12-15T16:26:47.306Z,30.40
2022-12-15T16:29:20.009Z,27.53
2022-12-15T16:31:47.611Z,31.20
2022-12-15T16:34:19.336Z,33.93
2022-12-15T16:36:46.808Z,30.63
2022-12-15T16:39:27.555Z,27.50
2022-12-15T16:41:55.895Z,25.00
2022-12-15T16:44:23.925Z,26.97
2022-12-15T16:46:51.446Z,28.53
2022-12-15T16:49:18.747Z,24.50
2022-12-15T16:51:49.363Z,30.53
2022-12-15T16:54:30.549Z,26.47
2022-12-15T16:57:00.084Z,22.93
2022-12-15T16:59:35.958Z,25.30
2022-12-15T17:02:23.978Z,27.80
2022-12-15T17:04:51.758Z,33.13
2022-12-15T17:07:20.717Z,32.37
2022-12-15T17:09:50.147Z,28.90
2022-12-15T17:12:18.331Z,26.13
2022-12-15T17:14:46.007Z,29.67
2022-12-15T17:17:16.129Z,29.30
2022-12-15T17:19:57.832Z,31.97
2022-12-15T17:22:30.536Z,29.17
2022-12-15T17:24:57.661Z,26.10
2022-12-15T17:27:29.534Z,26.13
2022-12-15T17:29:59.030Z,30.30
2022-12-15T17:32:26.828Z,27.03
2022-12-15T17:34:54.016Z,31.70
2022-12-15T17:37:21.180Z,28.97
2022-12-15T17:39:51.445Z,30.67
2022-12-15T17:42:20.793Z,32.83
2022-12-15T17:44:49.125Z,30.00
2022-12-15T17:47:19.533Z,27.97
2022-12-15T17:49:47.538Z,28.93
2022-12-15T17:52:34.474Z,29.67
2022-12-15T17:55:03.473Z,28.40
2022-12-15T17:57:33.636Z,29.40
2022-12-15T18:00:02.005Z,27.00
2022-12-15T18:02:29.691Z,30.73
2022-12-15T18:04:57.139Z,33.53
2022-12-15T18:07:24.535Z,28.60
2022-12-15T18:09:52.936Z,30.30
2022-12-15T18:12:25.569Z,31.03
2022-12-15T18:14:53.393Z,32.67
2022-12-15T18:17:20.870Z,30.07
2022-12-15T18:19:48.520Z,35.50
2022-12-15T18:22:33.804Z,28.13
2022-12-15T18:25:00.897Z,31.07
2022-12-15T18:27:29.277Z,32.40
2022-12-15T18:29:56.973Z,30.40
2022-12-15T18:32:27.145Z,29.90
2022-12-15T18:34:54.892Z,26.90
2022-12-15T18:37:24.849Z,26.27
2022-12-15T18:39:52.671Z,29.30
2022-12-15T18:42:21.894Z,29.73
2022-12-15T18:44:51.950Z,28.90
2022-12-15T18:47:21.543Z,33.00
2022-12-15T18:49:48.980Z,27.90
2022-12-15T18:52:30.043Z,29.40
2022-12-15T18:55:00.267Z,32.00
2022-12-15T18:57:37.975Z,30.33
2022-12-15T19:00:14.056Z,31.30
2022-12-15T19:02:42.414Z,30.07
2022-12-15T19:05:27.416Z,32.17
2022-12-15T19:08:04.021Z,40.10
2022-12-15T19:10:34.063Z,34.53
2022-12-15T19:13:01.341Z,34.17
2022-12-15T19:15:28.483Z,35.07
2022-12-15T19:18:14.337Z,34.23
2022-12-15T19:21:01.278Z,33.70
2022-12-15T19:23:28.592Z,31.30
2022-12-15T19:25:56.078Z,31.27
2022-12-15T19:28:24.270Z,30.60
2022-12-15T19:30:52.335Z,30.73
2022-12-15T19:33:20.013Z,31.60
2022-12-15T19:35:51.130Z,33.60
2022-12-15T19:38:31.587Z,29.97
2022-12-15T19:40:59.779Z,43.43
2022-12-15T19:43:27.377Z,51.90
2022-12-15T19:45:54.656Z,52.70
2022-12-15T19:48:24.049Z,60.87
2022-12-15T19:50:52.488Z,33.43
2022-12-15T19:53:31.298Z,33.70
2022-12-15T19:56:01.870Z,33.83
2022-12-15T19:58:34.815Z,28.50
2022-12-15T20:01:10.074Z,41.07
2022-12-15T20:03:37.895Z,29.57
2022-12-15T20:06:18.584Z,31.37
2022-12-15T20:08:48.247Z,33.00
2022-12-15T20:11:20.779Z,28.07
2022-12-15T20:13:49.308Z,28.73
2022-12-15T20:16:19.112Z,31.63
2022-12-15T20:18:52.298Z,32.90
2022-12-15T20:21:22.517Z,30.17
2022-12-15T20:23:53.815Z,33.07
2022-12-15T20:26:21.843Z,31.10
2022-12-15T20:28:49.042Z,31.03
2022-12-15T20:31:18.585Z,33.83
2022-12-15T20:33:46.701Z,35.40
2022-12-15T20:36:16.701Z,33.20
2022-12-15T20:38:44.736Z,33.03
2022-12-15T20:41:23.241Z,30.80
2022-12-15T20:43:51.346Z,35.13
2022-12-15T20:46:24.170Z,35.53
2022-12-15T20:48:53.526Z,28.23
2022-12-15T20:51:26.576Z,34.83
2022-12-15T20:53:55.943Z,31.47
2022-12-15T20:56:24.052Z,29.27
2022-12-15T20:58:52.951Z,30.20
2022-12-15T21:01:27.136Z,33.27
2022-12-15T21:03:56.528Z,31.50
2022-12-15T21:06:25.297Z,27.30
2022-12-15T21:08:52.984Z,31.10
2022-12-15T21:11:24.337Z,29.90
2022-12-15T21:13:53.668Z,38.63
2022-12-15T21:16:26.824Z,31.40
2022-12-15T21:21:47.785Z,37.10
2022-12-15T21:24:19.695Z,33.30
2022-12-15T21:26:47.035Z,31.37
2022-12-15T21:29:17.071Z,34.07
2022-12-15T21:31:45.256Z,41.30
2022-12-15T21:34:12.837Z,33.30
2022-12-15T21:36:43.989Z,32.00
2022-12-15T21:39:31.006Z,33.30
2022-12-15T21:42:00.313Z,33.83
2022-12-15T21:44:27.610Z,32.70
2022-12-15T21:46:54.846Z,32.23
2022-12-15T21:49:22.136Z,31.90
2022-12-15T21:52:00.344Z,30.03
2022-12-15T21:54:31.717Z,28.90
2022-12-15T21:57:00.216Z,42.80
2022-12-15T21:59:30.152Z,29.90
2022-12-15T22:01:57.554Z,35.30
2022-12-15T22:04:29.416Z,33.60
2022-12-15T22:06:56.563Z,29.43
2022-12-15T22:09:23.712Z,37.17
2022-12-15T22:11:55.804Z,30.47
2022-12-15T22:14:33.076Z,33.43
2022-12-15T22:17:16.367Z,37.63
2022-12-15T22:19:43.796Z,31.33
2022-12-15T22:22:12.339Z,34.40
2022-12-15T22:24:40.080Z,30.53
2022-12-15T22:27:20.420Z,29.27
2022-12-15T22:29:49.305Z,32.47
2022-12-15T22:32:17.400Z,31.37
2022-12-15T22:34:44.666Z,32.23
2022-12-15T22:37:11.754Z,29.00
2022-12-15T22:39:38.872Z,28.53
2022-12-15T22:42:06.382Z,33.13
2022-12-15T22:44:37.332Z,32.70
2022-12-15T22:47:06.585Z,35.57
2022-12-15T22:49:38.646Z,32.93
2022-12-15T22:52:20.383Z,30.20
2022-12-15T22:54:48.015Z,33.33
2022-12-15T22:57:23.050Z,31.03
2022-12-15T23:00:08.892Z,34.40
2022-12-15T23:02:40.775Z,30.90
2022-12-15T23:05:09.242Z,34.57
2022-12-15T23:07:36.484Z,34.17
2022-12-15T23:10:23.649Z,29.77
2022-12-15T23:12:54.444Z,33.00
2022-12-15T23:15:45.745Z,31.97
2022-12-15T23:18:13.439Z,32.60
2022-12-15T23:20:40.590Z,33.10
2022-12-15T23:23:08.635Z,34.13
2022-12-15T23:25:36.087Z,30.50
2022-12-15T23:28:03.601Z,29.30
2022-12-15T23:30:30.841Z,28.47
2022-12-15T23:32:57.998Z,35.43
2022-12-15T23:35:25.218Z,32.83
2022-12-15T23:37:52.338Z,35.50
2022-12-15T23:40:22.283Z,34.03
2022-12-15T23:42:50.684Z,35.47
2022-12-15T23:45:18.946Z,34.87
2022-12-15T23:47:46.153Z,34.17
2022-12-15T23:50:14.028Z,38.27
2022-12-15T23:52:41.416Z,34.70
2022-12-15T23:55:11.259Z,39.40
2022-12-15T23:57:39.411Z,35.50
